sensor_id;sensor_type;location;lat;lon;timestamp;temperature;humidity
5802;DHT22;2927;49.366;8.530;2022-10-18T00:00:33;16.60;99.90
5802;DHT22;2927;49.366;8.530;2022-10-18T00:02:59;16.60;99.90
5802;DHT22;2927;49.366;8.530;2022-10-18T00:05:24;16.60;99.90
5802;DHT22;2927;49.366;8.530;2022-10-18T00:07:50;16.70;99.90
5802;DHT22;2927;49.366;8.530;2022-10-18T00:10:15;16.70;99.90
5802;DHT22;2927;49.366;8.530;2022-10-18T00:12:41;16.70;99.90
5802;DHT22;2927;49.366;8.530;2022-10-18T00:15:08;16.70;99.90
5802;DHT22;2927;49.366;8.530;2022-10-18T00:17:35;16.80;99.90
5802;DHT22;2927;49.366;8.530;2022-10-18T00:20:01;16.80;99.90
5802;DHT22;2927;49.366;8.530;2022-10-18T00:22:26;16.80;99.90
5802;DHT22;2927;49.366;8.530;2022-10-18T00:24:52;16.80;99.90
5802;DHT22;2927;49.366;8.530;2022-10-18T00:27:18;16.80;99.90
5802;DHT22;2927;49.366;8.530;2022-10-18T00:29:43;16.80;99.90
5802;DHT22;2927;49.366;8.530;2022-10-18T00:32:09;16.80;99.90
5802;DHT22;2927;49.366;8.530;2022-10-18T00:34:37;16.80;99.90
5802;DHT22;2927;49.366;8.530;2022-10-18T00:37:03;16.80;99.90
5802;DHT22;2927;49.366;8.530;2022-10-18T00:39:29;16.80;99.90
5802;DHT22;2927;49.366;8.530;2022-10-18T00:41:54;16.80;99.90
5802;DHT22;2927;49.366;8.530;2022-10-18T00:46:48;16.70;99.90
5802;DHT22;2927;49.366;8.530;2022-10-18T00:49:18;16.70;99.90
5802;DHT22;2927;49.366;8.530;2022-10-18T00:54:39;16.70;99.90
5802;DHT22;2927;49.366;8.530;2022-10-18T00:57:06;16.80;99.90
5802;DHT22;2927;49.366;8.530;2022-10-18T00:59:32;16.80;99.90
5802;DHT22;2927;49.366;8.530;2022-10-18T01:01:58;16.80;99.90
5802;DHT22;2927;49.366;8.530;2022-10-18T01:04:24;16.80;99.90
5802;DHT22;2927;49.366;8.530;2022-10-18T01:07:07;16.90;99.90
5802;DHT22;2927;49.366;8.530;2022-10-18T01:09:42;16.90;99.90
5802;DHT22;2927;49.366;8.530;2022-10-18T01:13:01;16.90;99.90
5802;DHT22;2927;49.366;8.530;2022-10-18T01:15:29;16.90;99.90
5802;DHT22;2927;49.366;8.530;2022-10-18T01:18:15;16.90;99.90
5802;DHT22;2927;49.366;8.530;2022-10-18T01:32:15;17.00;99.90
5802;DHT22;2927;49.366;8.530;2022-10-18T01:34:43;17.00;99.90
5802;DHT22;2927;49.366;8.530;2022-10-18T01:37:14;17.00;99.90
5802;DHT22;2927;49.366;8.530;2022-10-18T01:39:44;17.00;99.90
5802;DHT22;2927;49.366;8.530;2022-10-18T01:42:12;17.00;99.90
5802;DHT22;2927;49.366;8.530;2022-10-18T01:44:40;17.00;99.90
5802;DHT22;2927;49.366;8.530;2022-10-18T01:47:10;17.00;99.90
5802;DHT22;2927;49.366;8.530;2022-10-18T01:49:36;17.10;99.90
5802;DHT22;2927;49.366;8.530;2022-10-18T01:52:02;17.00;99.90
5802;DHT22;2927;49.366;8.530;2022-10-18T01:54:34;17.10;99.90
5802;DHT22;2927;49.366;8.530;2022-10-18T02:00:06;17.10;99.90
5802;DHT22;2927;49.366;8.530;2022-10-18T02:02:46;17.10;99.90
5802;DHT22;2927;49.366;8.530;2022-10-18T02:08:19;17.10;99.90
5802;DHT22;2927;49.366;8.530;2022-10-18T02:11:15;17.10;99.90
5802;DHT22;2927;49.366;8.530;2022-10-18T02:13:52;17.00;99.90
5802;DHT22;2927;49.366;8.530;2022-10-18T02:16:23;17.00;99.90
5802;DHT22;2927;49.366;8.530;2022-10-18T02:19:08;17.00;99.90
5802;DHT22;2927;49.366;8.530;2022-10-18T02:21:37;17.00;99.90
5802;DHT22;2927;49.366;8.530;2022-10-18T02:24:05;17.00;99.90
5802;DHT22;2927;49.366;8.530;2022-10-18T02:26:31;16.90;99.90
5802;DHT22;2927;49.366;8.530;2022-10-18T02:28:57;16.90;99.90
5802;DHT22;2927;49.366;8.530;2022-10-18T02:31:35;16.90;99.90
5802;DHT22;2927;49.366;8.530;2022-10-18T02:34:52;16.90;99.90
5802;DHT22;2927;49.366;8.530;2022-10-18T02:36:54;16.90;99.90
5802;DHT22;2927;49.366;8.530;2022-10-18T02:39:42;16.90;99.90
5802;DHT22;2927;49.366;8.530;2022-10-18T02:42:10;16.90;99.90
5802;DHT22;2927;49.366;8.530;2022-10-18T02:44:36;16.80;99.90
5802;DHT22;2927;49.366;8.530;2022-10-18T02:47:03;16.80;99.90
5802;DHT22;2927;49.366;8.530;2022-10-18T02:49:29;16.80;99.90
5802;DHT22;2927;49.366;8.530;2022-10-18T02:51:55;16.80;99.90
5802;DHT22;2927;49.366;8.530;2022-10-18T02:54:21;16.70;99.90
5802;DHT22;2927;49.366;8.530;2022-10-18T02:56:47;16.70;99.90
5802;DHT22;2927;49.366;8.530;2022-10-18T02:59:12;16.80;99.90
5802;DHT22;2927;49.366;8.530;2022-10-18T03:01:38;16.80;99.90
5802;DHT22;2927;49.366;8.530;2022-10-18T03:04:04;16.80;99.90
5802;DHT22;2927;49.366;8.530;2022-10-18T03:06:30;16.80;99.90
5802;DHT22;2927;49.366;8.530;2022-10-18T03:08:56;16.80;99.90
5802;DHT22;2927;49.366;8.530;2022-10-18T03:11:21;16.80;99.90
5802;DHT22;2927;49.366;8.530;2022-10-18T03:13:47;16.80;99.90
5802;DHT22;2927;49.366;8.530;2022-10-18T03:16:14;16.90;99.90
5802;DHT22;2927;49.366;8.530;2022-10-18T03:18:40;16.90;99.90
5802;DHT22;2927;49.366;8.530;2022-10-18T03:21:06;16.90;99.90
5802;DHT22;2927;49.366;8.530;2022-10-18T03:23:32;16.90;99.90
5802;DHT22;2927;49.366;8.530;2022-10-18T03:25:57;16.90;99.90
5802;DHT22;2927;49.366;8.530;2022-10-18T03:28:23;16.90;99.90
5802;DHT22;2927;49.366;8.530;2022-10-18T03:30:48;16.90;99.90
5802;DHT22;2927;49.366;8.530;2022-10-18T03:33:14;16.90;99.90
5802;DHT22;2927;49.366;8.530;2022-10-18T03:35:39;16.80;99.90
5802;DHT22;2927;49.366;8.530;2022-10-18T03:38:05;16.80;99.90
5802;DHT22;2927;49.366;8.530;2022-10-18T03:40:31;16.80;99.90
5802;DHT22;2927;49.366;8.530;2022-10-18T03:42:56;16.70;99.90
5802;DHT22;2927;49.366;8.530;2022-10-18T03:45:22;16.70;99.90
5802;DHT22;2927;49.366;8.530;2022-10-18T03:47:47;16.70;99.90
5802;DHT22;2927;49.366;8.530;2022-10-18T03:50:13;16.70;99.90
5802;DHT22;2927;49.366;8.530;2022-10-18T03:52:39;16.70;99.90
5802;DHT22;2927;49.366;8.530;2022-10-18T03:55:05;16.70;99.90
5802;DHT22;2927;49.366;8.530;2022-10-18T03:57:30;16.70;99.90
5802;DHT22;2927;49.366;8.530;2022-10-18T03:59:56;16.70;99.90
5802;DHT22;2927;49.366;8.530;2022-10-18T04:02:21;16.70;99.90
5802;DHT22;2927;49.366;8.530;2022-10-18T04:04:47;16.80;99.90
5802;DHT22;2927;49.366;8.530;2022-10-18T04:07:12;16.80;99.90
5802;DHT22;2927;49.366;8.530;2022-10-18T04:09:38;16.80;99.90
5802;DHT22;2927;49.366;8.530;2022-10-18T04:12:03;16.80;99.90
5802;DHT22;2927;49.366;8.530;2022-10-18T04:14:29;16.80;99.90
5802;DHT22;2927;49.366;8.530;2022-10-18T04:16:55;16.80;99.90
5802;DHT22;2927;49.366;8.530;2022-10-18T04:19:20;16.80;99.90
5802;DHT22;2927;49.366;8.530;2022-10-18T04:21:45;16.80;99.90
5802;DHT22;2927;49.366;8.530;2022-10-18T04:24:11;16.80;99.90
5802;DHT22;2927;49.366;8.530;2022-10-18T04:26:37;16.80;99.90
5802;DHT22;2927;49.366;8.530;2022-10-18T04:29:02;16.90;99.90
5802;DHT22;2927;49.366;8.530;2022-10-18T04:31:28;16.90;99.90
5802;DHT22;2927;49.366;8.530;2022-10-18T04:33:53;16.90;99.90
5802;DHT22;2927;49.366;8.530;2022-10-18T04:36:19;16.90;99.90
5802;DHT22;2927;49.366;8.530;2022-10-18T04:38:45;16.90;99.90
5802;DHT22;2927;49.366;8.530;2022-10-18T04:41:10;16.90;99.90
5802;DHT22;2927;49.366;8.530;2022-10-18T04:43:36;16.80;99.90
5802;DHT22;2927;49.366;8.530;2022-10-18T04:46:01;16.80;99.90
5802;DHT22;2927;49.366;8.530;2022-10-18T04:48:27;16.70;99.90
5802;DHT22;2927;49.366;8.530;2022-10-18T04:50:53;16.70;99.90
5802;DHT22;2927;49.366;8.530;2022-10-18T04:53:18;16.70;99.90
5802;DHT22;2927;49.366;8.530;2022-10-18T04:55:45;16.70;99.90
5802;DHT22;2927;49.366;8.530;2022-10-18T04:58:12;16.70;99.90
5802;DHT22;2927;49.366;8.530;2022-10-18T05:00:37;16.80;99.90
5802;DHT22;2927;49.366;8.530;2022-10-18T05:03:03;16.80;99.90
5802;DHT22;2927;49.366;8.530;2022-10-18T05:05:28;16.80;99.90
5802;DHT22;2927;49.366;8.530;2022-10-18T05:07:54;16.80;99.90
5802;DHT22;2927;49.366;8.530;2022-10-18T05:10:19;16.80;99.90
5802;DHT22;2927;49.366;8.530;2022-10-18T05:12:45;16.80;99.90
5802;DHT22;2927;49.366;8.530;2022-10-18T05:15:10;16.80;99.90
5802;DHT22;2927;49.366;8.530;2022-10-18T05:17:36;16.80;99.90
5802;DHT22;2927;49.366;8.530;2022-10-18T05:20:02;16.80;99.90
5802;DHT22;2927;49.366;8.530;2022-10-18T05:22:27;16.80;99.90
5802;DHT22;2927;49.366;8.530;2022-10-18T05:24:53;16.80;99.90
5802;DHT22;2927;49.366;8.530;2022-10-18T05:27:19;16.80;99.90
5802;DHT22;2927;49.366;8.530;2022-10-18T05:29:44;16.80;99.90
5802;DHT22;2927;49.366;8.530;2022-10-18T05:32:10;16.80;99.90
5802;DHT22;2927;49.366;8.530;2022-10-18T05:34:35;16.80;99.90
5802;DHT22;2927;49.366;8.530;2022-10-18T05:37:01;16.80;99.90
5802;DHT22;2927;49.366;8.530;2022-10-18T05:39:27;16.70;99.90
5802;DHT22;2927;49.366;8.530;2022-10-18T05:41:52;16.70;99.90
5802;DHT22;2927;49.366;8.530;2022-10-18T05:44:18;16.70;99.90
5802;DHT22;2927;49.366;8.530;2022-10-18T05:46:43;16.70;99.90
5802;DHT22;2927;49.366;8.530;2022-10-18T05:49:11;16.70;99.90
5802;DHT22;2927;49.366;8.530;2022-10-18T05:51:36;16.70;99.90
5802;DHT22;2927;49.366;8.530;2022-10-18T05:54:02;16.80;99.90
5802;DHT22;2927;49.366;8.530;2022-10-18T05:56:28;16.80;99.90
5802;DHT22;2927;49.366;8.530;2022-10-18T05:58:53;16.80;99.90
5802;DHT22;2927;49.366;8.530;2022-10-18T06:01:19;16.80;99.90
5802;DHT22;2927;49.366;8.530;2022-10-18T06:03:45;16.70;99.90
5802;DHT22;2927;49.366;8.530;2022-10-18T06:06:12;16.80;99.90
5802;DHT22;2927;49.366;8.530;2022-10-18T06:08:38;16.80;99.90
5802;DHT22;2927;49.366;8.530;2022-10-18T06:11:09;16.80;99.90
5802;DHT22;2927;49.366;8.530;2022-10-18T06:13:41;16.70;99.90
5802;DHT22;2927;49.366;8.530;2022-10-18T06:16:07;16.70;99.90
5802;DHT22;2927;49.366;8.530;2022-10-18T06:18:33;16.60;99.90
5802;DHT22;2927;49.366;8.530;2022-10-18T06:20:59;16.60;99.90
5802;DHT22;2927;49.366;8.530;2022-10-18T06:23:25;16.60;99.90
5802;DHT22;2927;49.366;8.530;2022-10-18T06:25:51;16.60;99.90
5802;DHT22;2927;49.366;8.530;2022-10-18T06:28:16;16.70;99.90
5802;DHT22;2927;49.366;8.530;2022-10-18T06:30:42;16.70;99.90
5802;DHT22;2927;49.366;8.530;2022-10-18T06:33:08;16.70;99.90
5802;DHT22;2927;49.366;8.530;2022-10-18T06:35:36;16.70;99.90
5802;DHT22;2927;49.366;8.530;2022-10-18T06:38:02;16.70;99.90
5802;DHT22;2927;49.366;8.530;2022-10-18T06:40:27;16.70;99.90
5802;DHT22;2927;49.366;8.530;2022-10-18T06:42:55;16.70;99.90
5802;DHT22;2927;49.366;8.530;2022-10-18T06:45:20;16.70;99.90
5802;DHT22;2927;49.366;8.530;2022-10-18T06:47:46;16.80;99.90
5802;DHT22;2927;49.366;8.530;2022-10-18T06:50:12;16.70;99.90
5802;DHT22;2927;49.366;8.530;2022-10-18T06:52:37;16.80;99.90
5802;DHT22;2927;49.366;8.530;2022-10-18T06:55:03;16.70;99.90
5802;DHT22;2927;49.366;8.530;2022-10-18T06:57:29;16.80;99.90
5802;DHT22;2927;49.366;8.530;2022-10-18T06:59:54;16.80;99.90
5802;DHT22;2927;49.366;8.530;2022-10-18T07:02:20;16.90;99.90
5802;DHT22;2927;49.366;8.530;2022-10-18T07:04:45;16.90;99.90
5802;DHT22;2927;49.366;8.530;2022-10-18T07:07:11;16.90;99.90
5802;DHT22;2927;49.366;8.530;2022-10-18T07:09:36;16.90;99.90
5802;DHT22;2927;49.366;8.530;2022-10-18T07:12:02;17.00;99.90
5802;DHT22;2927;49.366;8.530;2022-10-18T07:14:27;17.10;99.90
5802;DHT22;2927;49.366;8.530;2022-10-18T07:16:53;17.10;99.90
5802;DHT22;2927;49.366;8.530;2022-10-18T07:19:18;17.10;99.90
5802;DHT22;2927;49.366;8.530;2022-10-18T07:21:44;17.00;99.90
5802;DHT22;2927;49.366;8.530;2022-10-18T07:24:09;17.00;99.90
5802;DHT22;2927;49.366;8.530;2022-10-18T07:26:35;17.00;99.90
5802;DHT22;2927;49.366;8.530;2022-10-18T07:29:06;17.00;99.90
5802;DHT22;2927;49.366;8.530;2022-10-18T07:31:32;17.00;99.90
5802;DHT22;2927;49.366;8.530;2022-10-18T07:33:58;17.00;99.90
5802;DHT22;2927;49.366;8.530;2022-10-18T07:36:24;17.00;99.90
5802;DHT22;2927;49.366;8.530;2022-10-18T07:38:50;17.00;99.90
5802;DHT22;2927;49.366;8.530;2022-10-18T07:41:16;16.90;99.90
5802;DHT22;2927;49.366;8.530;2022-10-18T07:43:44;16.90;99.90
5802;DHT22;2927;49.366;8.530;2022-10-18T07:46:11;16.90;99.90
5802;DHT22;2927;49.366;8.530;2022-10-18T07:48:37;16.90;99.90
5802;DHT22;2927;49.366;8.530;2022-10-18T07:51:03;17.00;99.90
5802;DHT22;2927;49.366;8.530;2022-10-18T07:53:29;17.00;99.90
5802;DHT22;2927;49.366;8.530;2022-10-18T07:55:58;17.10;99.90
5802;DHT22;2927;49.366;8.530;2022-10-18T07:58:24;17.20;99.90
5802;DHT22;2927;49.366;8.530;2022-10-18T08:00:49;17.30;99.90
5802;DHT22;2927;49.366;8.530;2022-10-18T08:03:15;17.30;99.90
5802;DHT22;2927;49.366;8.530;2022-10-18T08:05:40;17.40;99.90
5802;DHT22;2927;49.366;8.530;2022-10-18T08:08:06;17.30;99.90
5802;DHT22;2927;49.366;8.530;2022-10-18T08:10:33;17.30;99.90
5802;DHT22;2927;49.366;8.530;2022-10-18T08:12:59;17.40;99.90
5802;DHT22;2927;49.366;8.530;2022-10-18T08:15:24;17.40;99.90
5802;DHT22;2927;49.366;8.530;2022-10-18T08:17:50;17.40;99.90
5802;DHT22;2927;49.366;8.530;2022-10-18T08:20:16;17.40;99.90
5802;DHT22;2927;49.366;8.530;2022-10-18T08:22:42;17.50;99.90
5802;DHT22;2927;49.366;8.530;2022-10-18T08:25:07;17.40;99.90
5802;DHT22;2927;49.366;8.530;2022-10-18T08:27:33;17.60;99.90
5802;DHT22;2927;49.366;8.530;2022-10-18T08:29:58;17.60;99.90
5802;DHT22;2927;49.366;8.530;2022-10-18T08:32:26;17.60;99.90
5802;DHT22;2927;49.366;8.530;2022-10-18T08:34:52;17.80;99.90
5802;DHT22;2927;49.366;8.530;2022-10-18T08:37:18;17.90;99.90
5802;DHT22;2927;49.366;8.530;2022-10-18T08:39:44;18.00;99.90
5802;DHT22;2927;49.366;8.530;2022-10-18T08:44:58;18.10;99.90
5802;DHT22;2927;49.366;8.530;2022-10-18T08:47:37;18.10;99.90
5802;DHT22;2927;49.366;8.530;2022-10-18T08:50:07;18.10;99.90
5802;DHT22;2927;49.366;8.530;2022-10-18T08:53:03;18.10;99.90
5802;DHT22;2927;49.366;8.530;2022-10-18T08:55:38;18.10;99.90
5802;DHT22;2927;49.366;8.530;2022-10-18T08:58:25;18.40;99.90
5802;DHT22;2927;49.366;8.530;2022-10-18T09:17:32;19.50;99.90
5802;DHT22;2927;49.366;8.530;2022-10-18T09:25:21;19.80;99.90
5802;DHT22;2927;49.366;8.530;2022-10-18T09:28:07;19.80;99.90
5802;DHT22;2927;49.366;8.530;2022-10-18T09:33:09;20.00;99.90
5802;DHT22;2927;49.366;8.530;2022-10-18T09:35:50;20.00;99.90
5802;DHT22;2927;49.366;8.530;2022-10-18T09:38:19;19.80;99.90
5802;DHT22;2927;49.366;8.530;2022-10-18T09:40:53;19.80;99.90
5802;DHT22;2927;49.366;8.530;2022-10-18T09:43:23;19.80;99.90
5802;DHT22;2927;49.366;8.530;2022-10-18T09:45:52;19.80;99.90
5802;DHT22;2927;49.366;8.530;2022-10-18T09:48:45;19.80;99.90
5802;DHT22;2927;49.366;8.530;2022-10-18T09:51:19;19.60;99.90
5802;DHT22;2927;49.366;8.530;2022-10-18T09:59:48;19.60;99.90
5802;DHT22;2927;49.366;8.530;2022-10-18T10:02:20;19.70;99.90
5802;DHT22;2927;49.366;8.530;2022-10-18T10:04:47;19.80;99.90
5802;DHT22;2927;49.366;8.530;2022-10-18T10:07:25;19.80;99.90
5802;DHT22;2927;49.366;8.530;2022-10-18T10:10:07;20.00;99.90
5802;DHT22;2927;49.366;8.530;2022-10-18T10:12:38;19.90;99.90
5802;DHT22;2927;49.366;8.530;2022-10-18T10:15:23;20.20;99.90
5802;DHT22;2927;49.366;8.530;2022-10-18T10:20:41;20.50;99.90
5802;DHT22;2927;49.366;8.530;2022-10-18T10:23:24;20.20;99.90
5802;DHT22;2927;49.366;8.530;2022-10-18T10:25:55;20.10;99.90
5802;DHT22;2927;49.366;8.530;2022-10-18T10:28:26;20.00;99.90
5802;DHT22;2927;49.366;8.530;2022-10-18T10:30:52;19.70;99.90
5802;DHT22;2927;49.366;8.530;2022-10-18T10:33:47;19.60;99.90
5802;DHT22;2927;49.366;8.530;2022-10-18T10:36:21;19.70;99.90
5802;DHT22;2927;49.366;8.530;2022-10-18T10:41:30;19.90;99.90
5802;DHT22;2927;49.366;8.530;2022-10-18T10:43:56;20.00;99.90
5802;DHT22;2927;49.366;8.530;2022-10-18T10:46:21;20.00;99.90
5802;DHT22;2927;49.366;8.530;2022-10-18T10:56:28;20.90;99.90
5802;DHT22;2927;49.366;8.530;2022-10-18T10:59:17;21.00;68.60
5802;DHT22;2927;49.366;8.530;2022-10-18T11:01:42;21.30;93.00
5802;DHT22;2927;49.366;8.530;2022-10-18T11:04:29;21.10;9.50
5802;DHT22;2927;49.366;8.530;2022-10-18T11:20:22;20.80;59.00
5802;DHT22;2927;49.366;8.530;2022-10-18T11:25:22;20.50;99.90
5802;DHT22;2927;49.366;8.530;2022-10-18T11:31:13;20.60;99.90
5802;DHT22;2927;49.366;8.530;2022-10-18T11:33:54;20.60;99.90
5802;DHT22;2927;49.366;8.530;2022-10-18T11:36:28;20.40;99.90
5802;DHT22;2927;49.366;8.530;2022-10-18T11:41:54;20.20;99.90
5802;DHT22;2927;49.366;8.530;2022-10-18T11:44:44;20.30;99.90
5802;DHT22;2927;49.366;8.530;2022-10-18T11:55:53;20.80;34.90
5802;DHT22;2927;49.366;8.530;2022-10-18T12:04:13;20.70;7.80
5802;DHT22;2927;49.366;8.530;2022-10-18T12:06:45;20.60;25.20
5802;DHT22;2927;49.366;8.530;2022-10-18T12:12:01;20.50;25.60
5802;DHT22;2927;49.366;8.530;2022-10-18T12:14:28;20.30;92.30
5802;DHT22;2927;49.366;8.530;2022-10-18T12:16:57;20.30;99.90
5802;DHT22;2927;49.366;8.530;2022-10-18T12:19:30;20.20;99.90
5802;DHT22;2927;49.366;8.530;2022-10-18T12:22:09;20.10;99.90
5802;DHT22;2927;49.366;8.530;2022-10-18T12:24:38;20.10;99.90
5802;DHT22;2927;49.366;8.530;2022-10-18T12:27:03;20.20;74.20
5802;DHT22;2927;49.366;8.530;2022-10-18T12:29:48;20.20;92.60
5802;DHT22;2927;49.366;8.530;2022-10-18T12:32:19;20.10;90.20
5802;DHT22;2927;49.366;8.530;2022-10-18T12:34:53;20.10;96.70
5802;DHT22;2927;49.366;8.530;2022-10-18T12:40:20;20.30;83.40
5802;DHT22;2927;49.366;8.530;2022-10-18T12:42:48;20.50;42.60
5802;DHT22;2927;49.366;8.530;2022-10-18T12:45:27;20.50;23.50
5802;DHT22;2927;49.366;8.530;2022-10-18T12:47:58;20.60;1.00
5802;DHT22;2927;49.366;8.530;2022-10-18T12:53:23;20.50;2.20
5802;DHT22;2927;49.366;8.530;2022-10-18T12:55:50;20.30;47.90
5802;DHT22;2927;49.366;8.530;2022-10-18T13:14:02;19.90;99.90
5802;DHT22;2927;49.366;8.530;2022-10-18T13:16:55;19.90;99.90
5802;DHT22;2927;49.366;8.530;2022-10-18T13:24:31;19.80;99.90
5802;DHT22;2927;49.366;8.530;2022-10-18T13:32:58;19.70;99.90
5802;DHT22;2927;49.366;8.530;2022-10-18T13:35:41;19.60;99.90
5802;DHT22;2927;49.366;8.530;2022-10-18T13:38:29;19.80;99.90
5802;DHT22;2927;49.366;8.530;2022-10-18T13:41:04;19.80;99.90
5802;DHT22;2927;49.366;8.530;2022-10-18T13:48:53;19.90;99.90
5802;DHT22;2927;49.366;8.530;2022-10-18T13:59:59;19.80;99.90
5802;DHT22;2927;49.366;8.530;2022-10-18T14:02:41;19.80;99.90
5802;DHT22;2927;49.366;8.530;2022-10-18T14:16:39;19.40;99.90
5802;DHT22;2927;49.366;8.530;2022-10-18T14:19:15;19.40;99.90
5802;DHT22;2927;49.366;8.530;2022-10-18T14:21:47;19.40;99.90
5802;DHT22;2927;49.366;8.530;2022-10-18T14:24:20;19.40;99.90
5802;DHT22;2927;49.366;8.530;2022-10-18T14:26:46;19.40;99.90
5802;DHT22;2927;49.366;8.530;2022-10-18T14:29:17;19.40;99.90
5802;DHT22;2927;49.366;8.530;2022-10-18T14:31:51;19.40;99.90
5802;DHT22;2927;49.366;8.530;2022-10-18T14:34:17;19.50;99.90
5802;DHT22;2927;49.366;8.530;2022-10-18T14:36:45;19.50;99.90
5802;DHT22;2927;49.366;8.530;2022-10-18T14:39:20;19.50;99.90
5802;DHT22;2927;49.366;8.530;2022-10-18T14:41:52;19.50;99.90
5802;DHT22;2927;49.366;8.530;2022-10-18T14:44:28;19.50;99.90
5802;DHT22;2927;49.366;8.530;2022-10-18T14:49:25;19.40;99.90
5802;DHT22;2927;49.366;8.530;2022-10-18T14:51:52;19.30;99.90
5802;DHT22;2927;49.366;8.530;2022-10-18T14:54:22;19.30;99.90
5802;DHT22;2927;49.366;8.530;2022-10-18T14:56:48;19.30;99.90
5802;DHT22;2927;49.366;8.530;2022-10-18T14:59:20;19.30;99.90
5802;DHT22;2927;49.366;8.530;2022-10-18T15:01:56;19.30;99.90
5802;DHT22;2927;49.366;8.530;2022-10-18T15:04:23;19.30;99.90
5802;DHT22;2927;49.366;8.530;2022-10-18T15:06:55;19.30;99.90
5802;DHT22;2927;49.366;8.530;2022-10-18T15:09:22;19.30;99.90
5802;DHT22;2927;49.366;8.530;2022-10-18T15:11:48;19.30;99.90
5802;DHT22;2927;49.366;8.530;2022-10-18T15:14:17;19.30;99.90
5802;DHT22;2927;49.366;8.530;2022-10-18T15:16:43;19.30;99.90
5802;DHT22;2927;49.366;8.530;2022-10-18T15:22:09;19.40;99.90
5802;DHT22;2927;49.366;8.530;2022-10-18T15:24:37;19.40;99.90
5802;DHT22;2927;49.366;8.530;2022-10-18T15:27:21;19.40;99.90
5802;DHT22;2927;49.366;8.530;2022-10-18T15:29:48;19.30;99.90
5802;DHT22;2927;49.366;8.530;2022-10-18T15:32:24;19.20;99.90
5802;DHT22;2927;49.366;8.530;2022-10-18T15:34:51;19.10;99.90
5802;DHT22;2927;49.366;8.530;2022-10-18T15:42:51;19.10;99.90
5802;DHT22;2927;49.366;8.530;2022-10-18T15:45:29;19.00;99.90
5802;DHT22;2927;49.366;8.530;2022-10-18T15:50:49;19.00;99.90
5802;DHT22;2927;49.366;8.530;2022-10-18T15:56:06;18.90;99.90
5802;DHT22;2927;49.366;8.530;2022-10-18T15:58:46;18.90;99.90
5802;DHT22;2927;49.366;8.530;2022-10-18T16:01:21;18.90;99.90
5802;DHT22;2927;49.366;8.530;2022-10-18T16:03:47;18.90;99.90
5802;DHT22;2927;49.366;8.530;2022-10-18T16:06:15;18.70;99.90
5802;DHT22;2927;49.366;8.530;2022-10-18T16:08:50;18.70;99.90
5802;DHT22;2927;49.366;8.530;2022-10-18T16:11:23;18.60;99.90
5802;DHT22;2927;49.366;8.530;2022-10-18T16:13:50;18.50;99.90
5802;DHT22;2927;49.366;8.530;2022-10-18T16:16:20;18.50;99.90
5802;DHT22;2927;49.366;8.530;2022-10-18T16:18:46;18.50;99.90
5802;DHT22;2927;49.366;8.530;2022-10-18T16:21:20;18.40;99.90
5802;DHT22;2927;49.366;8.530;2022-10-18T16:23:48;18.30;99.90
5802;DHT22;2927;49.366;8.530;2022-10-18T16:26:14;18.30;99.90
5802;DHT22;2927;49.366;8.530;2022-10-18T16:28:41;18.20;99.90
5802;DHT22;2927;49.366;8.530;2022-10-18T16:31:08;18.20;99.90
5802;DHT22;2927;49.366;8.530;2022-10-18T16:33:34;18.10;99.90
5802;DHT22;2927;49.366;8.530;2022-10-18T16:36:01;18.10;99.90
5802;DHT22;2927;49.366;8.530;2022-10-18T16:38:35;18.10;99.90
5802;DHT22;2927;49.366;8.530;2022-10-18T16:41:06;18.00;99.90
5802;DHT22;2927;49.366;8.530;2022-10-18T16:43:32;18.00;99.90
5802;DHT22;2927;49.366;8.530;2022-10-18T16:45:59;18.00;99.90
5802;DHT22;2927;49.366;8.530;2022-10-18T16:48:25;18.00;99.90
5802;DHT22;2927;49.366;8.530;2022-10-18T16:50:53;18.00;99.90
5802;DHT22;2927;49.366;8.530;2022-10-18T16:53:19;18.00;99.90
5802;DHT22;2927;49.366;8.530;2022-10-18T16:55:53;18.00;99.90
5802;DHT22;2927;49.366;8.530;2022-10-18T16:58:19;17.90;99.90
5802;DHT22;2927;49.366;8.530;2022-10-18T17:00:45;17.80;99.90
5802;DHT22;2927;49.366;8.530;2022-10-18T17:03:12;17.80;99.90
5802;DHT22;2927;49.366;8.530;2022-10-18T17:05:39;17.80;99.90
5802;DHT22;2927;49.366;8.530;2022-10-18T17:08:05;17.70;99.90
5802;DHT22;2927;49.366;8.530;2022-10-18T17:10:30;17.70;99.90
5802;DHT22;2927;49.366;8.530;2022-10-18T17:12:56;17.60;99.90
5802;DHT22;2927;49.366;8.530;2022-10-18T17:15:21;17.60;99.90
5802;DHT22;2927;49.366;8.530;2022-10-18T17:17:47;17.60;99.90
5802;DHT22;2927;49.366;8.530;2022-10-18T17:20:23;17.60;99.90
5802;DHT22;2927;49.366;8.530;2022-10-18T17:22:48;17.50;99.90
5802;DHT22;2927;49.366;8.530;2022-10-18T17:25:15;17.50;99.90
5802;DHT22;2927;49.366;8.530;2022-10-18T17:27:41;17.50;99.90
5802;DHT22;2927;49.366;8.530;2022-10-18T17:30:07;17.60;99.90
5802;DHT22;2927;49.366;8.530;2022-10-18T17:32:33;17.60;99.90
5802;DHT22;2927;49.366;8.530;2022-10-18T17:34:59;17.60;99.90
5802;DHT22;2927;49.366;8.530;2022-10-18T17:37:24;17.60;99.90
5802;DHT22;2927;49.366;8.530;2022-10-18T17:39:50;17.60;99.90
5802;DHT22;2927;49.366;8.530;2022-10-18T17:42:15;17.50;99.90
5802;DHT22;2927;49.366;8.530;2022-10-18T17:44:41;17.50;99.90
5802;DHT22;2927;49.366;8.530;2022-10-18T17:47:07;17.50;99.90
5802;DHT22;2927;49.366;8.530;2022-10-18T17:49:33;17.50;99.90
5802;DHT22;2927;49.366;8.530;2022-10-18T17:51:59;17.40;99.90
5802;DHT22;2927;49.366;8.530;2022-10-18T17:54:24;17.40;99.90
5802;DHT22;2927;49.366;8.530;2022-10-18T17:56:51;17.50;99.90
5802;DHT22;2927;49.366;8.530;2022-10-18T17:59:16;17.50;99.90
5802;DHT22;2927;49.366;8.530;2022-10-18T18:01:42;17.50;99.90
5802;DHT22;2927;49.366;8.530;2022-10-18T18:04:07;17.50;99.90
5802;DHT22;2927;49.366;8.530;2022-10-18T18:06:35;17.50;99.90
5802;DHT22;2927;49.366;8.530;2022-10-18T18:09:06;17.50;99.90
5802;DHT22;2927;49.366;8.530;2022-10-18T18:11:32;17.60;99.90
5802;DHT22;2927;49.366;8.530;2022-10-18T18:13:58;17.60;99.90
5802;DHT22;2927;49.366;8.530;2022-10-18T18:16:26;17.50;99.90
5802;DHT22;2927;49.366;8.530;2022-10-18T18:18:54;17.40;99.90
5802;DHT22;2927;49.366;8.530;2022-10-18T18:21:21;17.40;99.90
5802;DHT22;2927;49.366;8.530;2022-10-18T18:23:47;17.40;99.90
5802;DHT22;2927;49.366;8.530;2022-10-18T18:26:14;17.40;99.90
5802;DHT22;2927;49.366;8.530;2022-10-18T18:28:40;17.40;99.90
5802;DHT22;2927;49.366;8.530;2022-10-18T18:31:07;17.40;99.90
5802;DHT22;2927;49.366;8.530;2022-10-18T18:33:34;17.40;99.90
5802;DHT22;2927;49.366;8.530;2022-10-18T18:36:00;17.40;99.90
5802;DHT22;2927;49.366;8.530;2022-10-18T18:38:29;17.50;99.90
5802;DHT22;2927;49.366;8.530;2022-10-18T18:41:07;17.50;99.90
5802;DHT22;2927;49.366;8.530;2022-10-18T18:43:34;17.60;99.90
5802;DHT22;2927;49.366;8.530;2022-10-18T18:46:00;17.60;99.90
5802;DHT22;2927;49.366;8.530;2022-10-18T18:48:27;17.50;99.90
5802;DHT22;2927;49.366;8.530;2022-10-18T18:50:53;17.50;99.90
5802;DHT22;2927;49.366;8.530;2022-10-18T18:53:19;17.40;99.90
5802;DHT22;2927;49.366;8.530;2022-10-18T18:55:45;17.50;99.90
5802;DHT22;2927;49.366;8.530;2022-10-18T18:58:11;17.40;99.90
5802;DHT22;2927;49.366;8.530;2022-10-18T19:00:40;17.40;99.90
5802;DHT22;2927;49.366;8.530;2022-10-18T19:03:07;17.40;99.90
5802;DHT22;2927;49.366;8.530;2022-10-18T19:05:33;17.50;99.90
5802;DHT22;2927;49.366;8.530;2022-10-18T19:08:00;17.40;99.90
5802;DHT22;2927;49.366;8.530;2022-10-18T19:10:26;17.50;99.90
5802;DHT22;2927;49.366;8.530;2022-10-18T19:12:51;17.50;99.90
5802;DHT22;2927;49.366;8.530;2022-10-18T19:15:17;17.60;99.90